createdAt,value
2022-11-29T00:01:29.931Z,39.03
2022-11-29T00:03:56.580Z,36.00
2022-11-29T00:06:27.259Z,35.92
2022-11-29T00:09:04.657Z,36.58
2022-11-29T00:12:13.644Z,32.92
2022-11-29T00:14:41.740Z,32.85
2022-11-29T00:17:08.370Z,33.67
2022-11-29T00:19:36.353Z,37.15
2022-11-29T00:22:03.877Z,32.70
2022-11-29T00:24:32.327Z,34.08
2022-11-29T00:26:58.940Z,34.75
2022-11-29T00:29:25.340Z,36.38
2022-11-29T00:31:51.688Z,39.75
2022-11-29T00:34:18.131Z,41.50
2022-11-29T00:36:44.523Z,37.53
2022-11-29T00:39:12.107Z,38.60
2022-11-29T00:41:39.560Z,34.72
2022-11-29T00:44:06.047Z,35.83
2022-11-29T00:46:32.461Z,37.28
2022-11-29T00:48:58.853Z,36.15
2022-11-29T00:51:25.289Z,38.70
2022-11-29T00:53:51.675Z,37.33
2022-11-29T00:56:18.181Z,36.85
2022-11-29T00:58:44.690Z,40.00
2022-11-29T01:01:12.298Z,36.80
2022-11-29T01:03:38.784Z,37.17
2022-11-29T01:06:08.284Z,38.92
2022-11-29T01:08:35.484Z,38.92
2022-11-29T01:11:11.475Z,38.75
2022-11-29T01:13:38.135Z,40.08
2022-11-29T01:16:05.263Z,38.13
2022-11-29T01:18:32.633Z,49.65
2022-11-29T01:21:08.314Z,49.30
2022-11-29T01:23:35.872Z,45.90
2022-11-29T01:26:08.516Z,43.03
2022-11-29T01:28:38.059Z,43.90
2022-11-29T01:31:15.564Z,41.33
2022-11-29T01:33:44.568Z,37.03
2022-11-29T01:36:13.104Z,41.58
2022-11-29T01:38:39.490Z,37.42
2022-11-29T01:41:17.901Z,38.28
2022-11-29T01:43:55.075Z,40.97
2022-11-29T01:46:21.723Z,40.47
2022-11-29T01:48:49.121Z,40.17
2022-11-29T01:51:15.715Z,39.00
2022-11-29T01:53:42.288Z,39.47
2022-11-29T01:56:10.096Z,39.05
2022-11-29T01:58:41.431Z,42.60
2022-11-29T02:01:11.037Z,41.35
2022-11-29T02:03:37.561Z,39.85
2022-11-29T02:06:09.916Z,40.15
2022-11-29T02:08:42.017Z,38.35
2022-11-29T02:11:11.200Z,41.75
2022-11-29T02:13:49.423Z,37.92
2022-11-29T02:16:34.563Z,41.75
2022-11-29T02:19:18.021Z,43.67
2022-11-29T02:21:52.271Z,40.97
2022-11-29T02:25:03.385Z,41.30
2022-11-29T02:27:59.579Z,41.10
2022-11-29T02:30:53.491Z,40.85
2022-11-29T02:33:26.044Z,44.28
2022-11-29T02:36:01.488Z,45.47
2022-11-29T02:38:59.880Z,41.63
2022-11-29T02:41:50.001Z,45.28
2022-11-29T02:44:34.672Z,43.85
2022-11-29T02:47:19.225Z,46.85
2022-11-29T02:50:18.202Z,44.53
2022-11-29T02:53:05.976Z,44.53
2022-11-29T02:55:43.297Z,45.45
2022-11-29T02:58:25.159Z,44.72
2022-11-29T03:00:59.477Z,44.75
2022-11-29T03:03:38.890Z,47.05
2022-11-29T03:06:37.399Z,44.22
2022-11-29T03:09:13.393Z,48.78
2022-11-29T03:11:54.249Z,46.88
2022-11-29T03:14:27.084Z,48.20
2022-11-29T03:17:36.442Z,46.15
2022-11-29T03:20:21.359Z,46.92
2022-11-29T03:23:09.625Z,47.38
2022-11-29T03:28:13.486Z,50.30
2022-11-29T03:30:49.110Z,45.55
2022-11-29T03:33:31.823Z,46.60
2022-11-29T03:36:18.627Z,48.72
2022-11-29T03:38:47.344Z,52.10
2022-11-29T03:41:20.132Z,47.63
2022-11-29T03:43:57.225Z,50.92
2022-11-29T03:46:42.261Z,46.72
2022-11-29T03:49:20.784Z,54.85
2022-11-29T03:51:59.317Z,46.75
2022-11-29T03:54:31.238Z,48.67
2022-11-29T03:56:58.002Z,47.80
2022-11-29T03:59:35.055Z,49.90
2022-11-29T04:02:29.678Z,48.45
2022-11-29T04:05:17.927Z,47.88
2022-11-29T04:07:55.523Z,45.80
2022-11-29T04:10:49.452Z,49.15
2022-11-29T04:13:37.286Z,46.38
2022-11-29T04:16:25.529Z,44.83
2022-11-29T04:19:19.682Z,48.05
2022-11-29T04:22:05.539Z,46.40
2022-11-29T04:24:56.759Z,48.25
2022-11-29T04:27:38.841Z,50.90
2022-11-29T04:30:08.465Z,49.53
2022-11-29T04:32:53.359Z,47.33
2022-11-29T04:35:44.599Z,44.40
2022-11-29T04:38:37.924Z,48.35
2022-11-29T04:41:27.924Z,45.75
2022-11-29T04:44:03.384Z,47.28
2022-11-29T04:46:42.272Z,45.15
2022-11-29T04:49:37.957Z,44.53
2022-11-29T04:52:23.122Z,44.58
2022-11-29T04:54:59.872Z,43.95
2022-11-29T04:57:46.240Z,46.33
2022-11-29T05:00:20.481Z,46.28
2022-11-29T05:02:58.505Z,45.25
2022-11-29T05:05:35.507Z,44.88
2022-11-29T05:08:37.635Z,44.38
2022-11-29T05:11:28.755Z,43.00
2022-11-29T05:14:01.118Z,40.50
2022-11-29T05:16:53.741Z,44.40
2022-11-29T05:19:32.178Z,41.63
2022-11-29T05:22:19.849Z,46.45
2022-11-29T05:24:56.577Z,44.38
2022-11-29T05:27:47.210Z,42.78
2022-11-29T05:30:16.469Z,43.97
2022-11-29T05:33:20.708Z,43.20
2022-11-29T05:35:58.453Z,40.38
2022-11-29T05:38:46.221Z,40.28
2022-11-29T05:41:36.945Z,42.42
2022-11-29T05:44:12.586Z,41.45
2022-11-29T05:47:01.605Z,40.78
2022-11-29T05:49:47.122Z,41.60
2022-11-29T05:52:25.016Z,40.72
2022-11-29T05:55:10.355Z,39.53
2022-11-29T05:58:04.404Z,42.30
2022-11-29T06:00:44.316Z,41.15
2022-11-29T06:03:21.638Z,43.60
2022-11-29T06:05:56.659Z,38.35
2022-11-29T06:08:34.180Z,36.92
2022-11-29T06:11:05.765Z,37.80
2022-11-29T06:13:49.704Z,38.83
2022-11-29T06:16:46.222Z,37.95
2022-11-29T06:19:21.561Z,36.25
2022-11-29T06:22:09.968Z,37.17
2022-11-29T06:25:01.363Z,36.95
2022-11-29T06:27:45.793Z,34.28
2022-11-29T06:30:20.183Z,35.50
2022-11-29T06:32:57.803Z,37.28
2022-11-29T06:35:45.749Z,37.72
2022-11-29T06:38:20.509Z,36.88
2022-11-29T06:40:47.345Z,34.92
2022-11-29T06:43:14.019Z,36.63
2022-11-29T06:45:46.833Z,36.17
2022-11-29T06:48:26.101Z,39.83
2022-11-29T06:51:21.280Z,37.85
2022-11-29T06:54:01.840Z,38.90
2022-11-29T06:56:58.141Z,37.15
2022-11-29T06:59:48.696Z,38.22
2022-11-29T07:02:50.609Z,39.40
2022-11-29T07:05:35.296Z,39.90
2022-11-29T07:08:10.483Z,38.67
2022-11-29T07:10:39.607Z,38.33
2022-11-29T07:13:06.272Z,37.13
2022-11-29T07:15:33.207Z,38.92
2022-11-29T07:18:25.257Z,38.10
2022-11-29T07:21:24.105Z,42.88
2022-11-29T07:24:04.720Z,39.70
2022-11-29T07:26:59.746Z,38.97
2022-11-29T07:29:46.156Z,39.63
2022-11-29T07:32:29.295Z,40.28
2022-11-29T07:35:04.217Z,37.88
2022-11-29T07:38:04.448Z,38.67
2022-11-29T07:40:45.795Z,38.17
2022-11-29T07:43:18.127Z,37.28
2022-11-29T07:45:50.913Z,36.30
2022-11-29T07:48:17.758Z,35.70
2022-11-29T07:50:45.147Z,38.33
2022-11-29T07:53:17.253Z,38.05
2022-11-29T07:55:44.609Z,37.83
2022-11-29T07:58:15.610Z,36.63
2022-11-29T08:00:42.744Z,35.40
2022-11-29T08:03:10.595Z,49.80
2022-11-29T08:05:39.381Z,70.93
2022-11-29T08:08:06.157Z,36.65
2022-11-29T08:10:32.809Z,40.45
2022-11-29T08:12:59.166Z,46.80
2022-11-29T08:15:25.870Z,36.92
2022-11-29T08:17:53.191Z,39.03
2022-11-29T08:20:20.023Z,33.35
2022-11-29T08:22:57.672Z,36.10
2022-11-29T08:25:25.524Z,34.08
2022-11-29T08:27:52.033Z,32.00
2022-11-29T08:30:22.004Z,35.05
2022-11-29T08:32:51.539Z,62.97
2022-11-29T08:35:22.968Z,40.33
2022-11-29T08:37:49.788Z,33.53
2022-11-29T08:40:17.384Z,32.97
2022-11-29T08:42:43.751Z,31.23
2022-11-29T08:45:11.118Z,32.97
2022-11-29T08:47:38.362Z,31.13
2022-11-29T08:50:12.240Z,31.75
2022-11-29T08:53:00.440Z,29.38
2022-11-29T08:55:30.919Z,29.27
2022-11-29T08:58:03.229Z,27.98
2022-11-29T09:00:30.699Z,28.98
2022-11-29T09:03:17.034Z,28.65
2022-11-29T09:05:43.669Z,26.38
2022-11-29T09:08:10.544Z,27.85
2022-11-29T09:10:39.401Z,38.85
2022-11-29T09:13:06.848Z,40.30
2022-11-29T09:15:33.516Z,29.40
2022-11-29T09:17:59.931Z,25.83
2022-11-29T09:20:26.495Z,29.25
2022-11-29T09:22:52.842Z,27.80
2022-11-29T09:25:19.234Z,27.50
2022-11-29T09:27:45.589Z,26.05
2022-11-29T09:30:12.309Z,24.88
2022-11-29T09:32:38.681Z,27.05
2022-11-29T09:35:05.367Z,28.13
2022-11-29T09:37:31.731Z,27.95
2022-11-29T09:39:58.089Z,27.90
2022-11-29T09:42:52.609Z,25.25
2022-11-29T09:48:30.979Z,26.92
2022-11-29T09:51:04.217Z,24.20
2022-11-29T09:53:49.187Z,24.42
2022-11-29T09:56:28.433Z,26.35
2022-11-29T09:59:01.831Z,24.35
2022-11-29T10:01:32.517Z,25.42
2022-11-29T10:04:05.203Z,25.13
2022-11-29T10:06:38.903Z,23.60
2022-11-29T10:09:20.495Z,22.80
2022-11-29T10:11:52.635Z,26.88
2022-11-29T10:14:31.988Z,40.63
2022-11-29T10:17:24.828Z,21.42
2022-11-29T10:19:55.017Z,25.90
2022-11-29T10:22:40.861Z,23.70
2022-11-29T10:25:10.480Z,22.75
2022-11-29T10:27:40.207Z,25.40
2022-11-29T10:32:39.588Z,25.23
2022-11-29T10:35:13.338Z,23.05
2022-11-29T10:37:40.028Z,23.05
2022-11-29T10:40:19.181Z,24.77
2022-11-29T10:42:48.645Z,27.67
2022-11-29T10:45:26.244Z,24.20
2022-11-29T10:47:58.009Z,23.77
2022-11-29T10:50:27.672Z,27.55
2022-11-29T10:53:12.986Z,24.38
2022-11-29T10:55:45.813Z,25.85
2022-11-29T10:58:27.925Z,26.67
2022-11-29T11:00:58.024Z,26.10
2022-11-29T11:03:35.438Z,27.58
2022-11-29T11:06:17.355Z,26.20
2022-11-29T11:08:48.381Z,27.08
2022-11-29T11:11:24.720Z,25.55
2022-11-29T11:14:23.032Z,28.70
2022-11-29T11:16:49.958Z,30.75
2022-11-29T11:19:32.026Z,25.08
2022-11-29T11:22:00.988Z,27.70
2022-11-29T11:24:33.192Z,28.73
2022-11-29T11:27:00.722Z,26.92
2022-11-29T11:29:39.550Z,29.60
2022-11-29T11:32:16.457Z,27.73
2022-11-29T11:34:54.705Z,29.90
2022-11-29T11:37:31.441Z,26.00
2022-11-29T11:40:01.334Z,28.67
2022-11-29T11:42:38.309Z,29.40
2022-11-29T11:45:10.727Z,30.33
2022-11-29T11:47:46.520Z,28.33
2022-11-29T11:50:16.660Z,29.30
2022-11-29T11:52:53.386Z,26.40
2022-11-29T11:55:36.412Z,30.35
2022-11-29T11:58:10.627Z,27.23
2022-11-29T12:03:36.977Z,27.02
2022-11-29T12:06:11.952Z,31.30
2022-11-29T12:08:39.558Z,30.10
2022-11-29T12:11:10.679Z,26.40
2022-11-29T12:13:44.155Z,27.83
2022-11-29T12:16:16.492Z,28.08
2022-11-29T12:18:48.922Z,27.00
2022-11-29T12:21:17.657Z,26.60
2022-11-29T12:23:49.549Z,27.80
2022-11-29T12:26:55.361Z,30.92
2022-11-29T12:29:14.637Z,27.73
2022-11-29T12:31:58.456Z,25.73
2022-11-29T12:34:43.478Z,28.30
2022-11-29T12:37:25.627Z,28.75
2022-11-29T12:40:19.872Z,27.40
2022-11-29T12:42:57.149Z,30.80
2022-11-29T12:45:33.683Z,33.80
2022-11-29T12:48:10.123Z,32.60
2022-11-29T12:50:59.275Z,35.30
2022-11-29T12:53:27.436Z,31.35
2022-11-29T12:56:13.553Z,30.95
2022-11-29T12:58:49.012Z,30.90
2022-11-29T13:01:29.148Z,31.10
2022-11-29T13:04:14.262Z,28.48
2022-11-29T13:06:49.326Z,29.75
2022-11-29T13:09:15.671Z,30.58
2022-11-29T13:12:11.326Z,29.83
2022-11-29T13:14:54.322Z,31.67
2022-11-29T13:17:47.090Z,30.65
2022-11-29T13:20:25.382Z,49.78
2022-11-29T13:23:01.339Z,37.42
2022-11-29T13:25:35.130Z,28.35
2022-11-29T13:28:11.035Z,30.38
2022-11-29T13:33:19.875Z,33.47
2022-11-29T13:35:46.269Z,31.10
2022-11-29T13:38:24.683Z,35.95
2022-11-29T13:40:58.188Z,34.30
2022-11-29T13:43:38.294Z,32.00
2022-11-29T13:46:14.206Z,39.20
2022-11-29T13:51:28.068Z,35.88
2022-11-29T13:53:56.419Z,37.78
2022-11-29T13:56:46.632Z,36.92
2022-11-29T13:59:24.203Z,36.45
2022-11-29T14:01:53.745Z,36.58
2022-11-29T14:06:48.307Z,37.25
2022-11-29T14:09:33.504Z,39.40
2022-11-29T14:12:17.673Z,43.00
2022-11-29T14:15:06.011Z,39.55
2022-11-29T14:20:22.192Z,37.50
2022-11-29T14:25:52.416Z,37.85
2022-11-29T14:28:21.776Z,39.10
2022-11-29T14:31:01.899Z,36.72
2022-11-29T14:33:33.611Z,38.45
2022-11-29T14:36:15.298Z,37.42
2022-11-29T14:38:52.344Z,38.35
2022-11-29T14:41:33.011Z,42.78
2022-11-29T14:44:30.781Z,40.25
2022-11-29T14:47:06.737Z,38.25
2022-11-29T14:49:44.344Z,48.45
2022-11-29T14:52:13.693Z,42.97
2022-11-29T14:54:59.730Z,36.47
2022-11-29T14:57:44.726Z,35.55
2022-11-29T15:00:12.556Z,36.63
2022-11-29T15:02:44.257Z,39.00
2022-11-29T15:05:13.448Z,35.95
2022-11-29T15:07:46.886Z,37.05
2022-11-29T15:10:21.068Z,37.35
2022-11-29T15:12:49.424Z,39.03
2022-11-29T15:15:28.077Z,42.08
2022-11-29T15:18:11.459Z,37.90
2022-11-29T15:21:00.730Z,39.00
2022-11-29T15:23:27.101Z,37.92
2022-11-29T15:25:59.576Z,41.35
2022-11-29T15:28:28.764Z,38.28
2022-11-29T15:31:07.901Z,39.03
2022-11-29T15:33:37.127Z,36.90
2022-11-29T15:36:06.999Z,37.15
2022-11-29T15:38:51.855Z,40.22
2022-11-29T15:41:28.597Z,41.03
2022-11-29T15:44:04.481Z,91.45
2022-11-29T15:46:32.877Z,40.30
2022-11-29T15:49:17.953Z,39.47
2022-11-29T15:51:48.445Z,40.67
2022-11-29T15:54:23.644Z,38.88
2022-11-29T15:57:04.008Z,41.63
2022-11-29T15:59:51.619Z,39.70
2022-11-29T16:02:25.869Z,42.20
2022-11-29T16:04:57.042Z,42.70
2022-11-29T16:07:25.911Z,38.30
2022-11-29T16:09:59.838Z,48.67
2022-11-29T16:12:26.413Z,45.80
2022-11-29T16:14:58.512Z,39.20
2022-11-29T16:17:27.151Z,44.17
2022-11-29T16:20:13.413Z,42.15
2022-11-29T16:22:40.104Z,41.42
2022-11-29T16:25:15.491Z,44.55
2022-11-29T16:27:42.651Z,40.72
2022-11-29T16:30:24.607Z,42.28
2022-11-29T16:32:59.165Z,39.63
2022-11-29T16:35:33.672Z,42.35
2022-11-29T16:38:04.409Z,45.78
2022-11-29T16:40:33.097Z,42.72
2022-11-29T16:43:20.094Z,39.50
2022-11-29T16:45:46.929Z,43.75
2022-11-29T16:48:22.542Z,40.78
2022-11-29T16:51:20.323Z,46.72
2022-11-29T16:53:53.057Z,48.17
2022-11-29T16:56:23.554Z,45.10
2022-11-29T16:59:20.929Z,46.40
2022-11-29T17:01:40.460Z,87.72
2022-11-29T17:04:09.026Z,46.58
2022-11-29T17:06:35.929Z,47.35
2022-11-29T17:09:02.652Z,45.50
2022-11-29T17:11:29.050Z,44.40
2022-11-29T17:13:55.388Z,44.10
2022-11-29T17:16:23.632Z,45.03
2022-11-29T17:18:52.635Z,46.78
2022-11-29T17:21:25.304Z,45.78
2022-11-29T17:23:53.038Z,46.45
2022-11-29T17:26:20.610Z,45.10
2022-11-29T17:28:48.366Z,46.55
2022-11-29T17:31:23.181Z,51.08
2022-11-29T17:33:50.460Z,44.05
2022-11-29T17:36:19.603Z,51.10
2022-11-29T17:38:46.614Z,61.42
2022-11-29T17:41:16.645Z,48.05
2022-11-29T17:43:43.048Z,49.65
2022-11-29T17:46:14.318Z,45.22
2022-11-29T17:48:41.167Z,50.80
2022-11-29T17:51:22.875Z,46.47
2022-11-29T17:53:55.504Z,45.25
2022-11-29T17:56:24.640Z,49.03
2022-11-29T17:58:52.809Z,46.40
2022-11-29T18:01:21.805Z,47.53
2022-11-29T18:03:51.180Z,48.67
2022-11-29T18:06:20.166Z,48.53
2022-11-29T18:08:48.745Z,53.03
2022-11-29T18:11:21.404Z,48.10
2022-11-29T18:13:48.694Z,50.30
2022-11-29T18:16:20.754Z,55.60
2022-11-29T18:18:47.649Z,57.70
2022-11-29T18:21:14.399Z,69.70
2022-11-29T18:23:42.639Z,54.80
2022-11-29T18:26:12.710Z,49.22
2022-11-29T18:28:40.429Z,55.90
2022-11-29T18:31:28.151Z,44.05
2022-11-29T18:33:57.466Z,49.25
2022-11-29T18:36:26.202Z,49.13
2022-11-29T18:38:57.536Z,47.83
2022-11-29T18:41:24.843Z,49.45
2022-11-29T18:44:03.520Z,51.00
2022-11-29T18:46:32.637Z,44.50
2022-11-29T18:49:00.999Z,46.33
2022-11-29T18:51:29.278Z,49.25
2022-11-29T18:53:56.528Z,44.88
2022-11-29T18:56:24.771Z,46.42
2022-11-29T18:59:00.196Z,79.57
2022-11-29T19:01:29.332Z,73.95
2022-11-29T19:03:58.330Z,47.50
2022-11-29T19:06:39.366Z,46.03
2022-11-29T19:09:09.601Z,47.28
2022-11-29T19:11:35.979Z,46.92
2022-11-29T19:14:11.295Z,46.65
2022-11-29T19:16:40.341Z,49.03
2022-11-29T19:19:07.036Z,47.08
2022-11-29T19:21:34.556Z,48.78
2022-11-29T19:24:03.794Z,46.70
2022-11-29T19:26:31.563Z,46.78
2022-11-29T19:29:00.225Z,46.95
2022-11-29T19:31:27.389Z,45.85
2022-11-29T19:33:54.801Z,50.60
2022-11-29T19:36:26.768Z,48.53
2022-11-29T19:38:54.561Z,52.70
2022-11-29T19:41:29.778Z,53.85
2022-11-29T19:43:57.605Z,51.97
2022-11-29T19:46:26.883Z,49.47
2022-11-29T19:48:54.953Z,51.80
2022-11-29T19:51:22.687Z,51.45
2022-11-29T19:53:53.083Z,52.30
2022-11-29T19:56:20.459Z,47.72
2022-11-29T19:58:47.291Z,49.83
2022-11-29T20:01:22.898Z,54.10
2022-11-29T20:03:49.722Z,49.42
2022-11-29T20:06:16.868Z,52.53
2022-11-29T20:08:44.570Z,52.10
2022-11-29T20:11:13.980Z,67.05
2022-11-29T20:13:42.344Z,56.42
2022-11-29T20:16:11.952Z,53.03
2022-11-29T20:18:43.539Z,87.35
2022-11-29T20:21:15.616Z,53.22
2022-11-29T20:23:43.018Z,55.28
2022-11-29T20:26:17.935Z,54.75
2022-11-29T20:28:44.816Z,50.92
2022-11-29T20:31:13.934Z,52.15
2022-11-29T20:33:41.952Z,51.53
2022-11-29T20:36:38.352Z,50.25
2022-11-29T20:39:25.787Z,50.10
2022-11-29T20:42:23.147Z,52.88
2022-11-29T20:44:57.832Z,52.95
2022-11-29T20:47:27.181Z,54.17
2022-11-29T20:49:54.197Z,51.47
2022-11-29T20:52:42.271Z,51.85
2022-11-29T20:55:09.250Z,50.42
2022-11-29T20:57:38.215Z,48.03
2022-11-29T21:00:07.284Z,50.95
2022-11-29T21:02:33.681Z,49.38
2022-11-29T21:05:00.084Z,51.60
2022-11-29T21:07:26.479Z,46.45
2022-11-29T21:09:56.672Z,48.65
2022-11-29T21:12:27.832Z,51.63
2022-11-29T21:14:54.525Z,48.58
2022-11-29T21:17:21.217Z,49.45
2022-11-29T21:19:47.846Z,51.20
2022-11-29T21:22:23.377Z,51.22
2022-11-29T21:25:25.235Z,49.72
2022-11-29T21:27:52.615Z,49.20
2022-11-29T21:30:22.088Z,49.58
2022-11-29T21:32:49.213Z,48.33
2022-11-29T21:35:15.913Z,48.08
2022-11-29T21:37:43.154Z,49.20
2022-11-29T21:40:10.909Z,46.90
2022-11-29T21:42:37.908Z,46.40
2022-11-29T21:45:08.188Z,46.17
2022-11-29T21:47:39.719Z,46.05
2022-11-29T21:50:06.869Z,45.65
2022-11-29T21:52:33.361Z,49.10
2022-11-29T21:54:59.732Z,54.25
2022-11-29T21:57:26.135Z,45.67
2022-11-29T21:59:52.983Z,52.13
2022-11-29T22:02:19.466Z,58.30
2022-11-29T22:04:46.065Z,48.70
2022-11-29T22:07:12.660Z,50.38
2022-11-29T22:09:39.029Z,50.63
2022-11-29T22:12:25.800Z,51.75
2022-11-29T22:14:52.111Z,52.28
2022-11-29T22:17:18.477Z,47.60
2022-11-29T22:19:44.832Z,47.60
2022-11-29T22:22:11.249Z,44.03
2022-11-29T22:24:37.850Z,50.95
2022-11-29T22:27:04.399Z,44.00
2022-11-29T22:29:30.908Z,46.40
2022-11-29T22:31:59.146Z,48.72
2022-11-29T22:34:27.086Z,48.42
2022-11-29T22:36:53.716Z,51.97
2022-11-29T22:39:20.072Z,54.03
2022-11-29T22:41:50.802Z,48.78
2022-11-29T22:44:20.617Z,46.95
2022-11-29T22:46:46.989Z,41.90
2022-11-29T22:49:13.421Z,44.97
2022-11-29T22:51:39.929Z,43.08
2022-11-29T22:54:08.980Z,44.78
2022-11-29T22:56:38.165Z,44.97
2022-11-29T22:59:05.427Z,43.17
2022-11-29T23:01:34.677Z,44.38
2022-11-29T23:04:03.947Z,45.55
2022-11-29T23:06:32.917Z,40.28
2022-11-29T23:09:05.257Z,41.58
2022-11-29T23:11:32.186Z,39.70
2022-11-29T23:13:58.571Z,43.50
2022-11-29T23:16:27.977Z,40.70
2022-11-29T23:18:56.392Z,41.75
2022-11-29T23:21:29.405Z,41.90
2022-11-29T23:23:57.015Z,43.47
2022-11-29T23:26:39.633Z,37.78
2022-11-29T23:29:08.393Z,42.88
2022-11-29T23:31:34.946Z,40.20
2022-11-29T23:34:02.239Z,38.70
2022-11-29T23:36:28.937Z,43.40
2022-11-29T23:38:55.279Z,43.15
2022-11-29T23:41:21.651Z,43.47
2022-11-29T23:43:47.995Z,40.50
2022-11-29T23:46:16.744Z,43.90
2022-11-29T23:48:43.872Z,41.33
2022-11-29T23:51:10.912Z,42.10
2022-11-29T23:53:37.578Z,41.10
2022-11-29T23:56:11.370Z,44.33
2022-11-29T23:58:38.082Z,43.55
